createdAt,value
2018-01-15T00:00:06.583Z,10.70
2018-01-15T00:02:34.449Z,10.20
2018-01-15T00:05:02.317Z,10.80
2018-01-15T00:07:30.053Z,10.13
2018-01-15T00:09:57.781Z,10.27
2018-01-15T00:12:26.274Z,11.43
2018-01-15T00:14:54.911Z,10.57
2018-01-15T00:17:22.781Z,9.95
2018-01-15T00:19:50.647Z,10.20
2018-01-15T00:22:18.518Z,10.20
2018-01-15T00:24:46.381Z,9.98
2018-01-15T00:27:14.249Z,8.95
2018-01-15T00:29:42.117Z,10.43
2018-01-15T00:32:09.837Z,10.55
2018-01-15T00:34:37.557Z,9.60
2018-01-15T00:37:05.265Z,10.80
2018-01-15T00:39:32.988Z,10.05
2018-01-15T00:42:00.697Z,9.35
2018-01-15T00:44:28.501Z,10.30
2018-01-15T00:46:56.368Z,9.95
2018-01-15T00:49:24.235Z,10.02
2018-01-15T00:51:52.103Z,10.10
2018-01-15T00:54:19.817Z,11.45
2018-01-15T00:56:48.453Z,10.68
2018-01-15T00:59:16.320Z,10.70
2018-01-15T01:01:44.186Z,10.43
2018-01-15T01:04:12.053Z,10.27
2018-01-15T01:06:39.775Z,11.10
2018-01-15T01:09:07.481Z,10.05
2018-01-15T01:11:35.190Z,13.18
2018-01-15T01:14:03.681Z,9.85
2018-01-15T01:16:31.418Z,10.07
2018-01-15T01:18:59.257Z,11.18
2018-01-15T01:21:27.125Z,11.20
2018-01-15T01:23:54.992Z,10.07
2018-01-15T01:26:22.860Z,10.38
2018-01-15T01:28:50.727Z,9.82
2018-01-15T01:31:18.593Z,11.10
2018-01-15T01:33:46.461Z,10.85
2018-01-15T01:36:14.329Z,9.52
2018-01-15T01:38:42.196Z,11.32
2018-01-15T01:41:09.925Z,12.20
2018-01-15T01:43:37.726Z,11.90
2018-01-15T01:46:05.593Z,13.43
2018-01-15T01:48:33.466Z,12.43
2018-01-15T01:51:02.146Z,14.98
2018-01-15T01:53:30.015Z,15.85
2018-01-15T01:55:57.882Z,15.98
2018-01-15T01:58:25.749Z,13.55
2018-01-15T02:00:53.615Z,11.73
2018-01-15T02:03:21.349Z,11.80
2018-01-15T02:05:49.073Z,9.95
2018-01-15T02:08:16.808Z,11.00
2018-01-15T02:10:44.677Z,10.25
2018-01-15T02:13:12.543Z,12.80
2018-01-15T02:15:40.412Z,10.95
2018-01-15T02:18:08.277Z,12.02
2018-01-15T02:20:36.146Z,14.20
2018-01-15T02:23:04.013Z,14.52
2018-01-15T02:25:31.881Z,12.60
2018-01-15T02:27:59.850Z,11.93
2018-01-15T02:30:27.719Z,10.63
2018-01-15T02:32:55.584Z,11.10
2018-01-15T02:35:23.452Z,11.55
2018-01-15T02:37:51.321Z,11.27
2018-01-15T02:40:19.187Z,10.18
2018-01-15T02:42:46.985Z,10.57
2018-01-15T02:45:15.637Z,10.63
2018-01-15T02:47:43.504Z,11.52
2018-01-15T02:50:12.294Z,11.63
2018-01-15T02:52:40.162Z,10.57
2018-01-15T02:55:08.028Z,10.23
2018-01-15T02:57:35.895Z,10.45
2018-01-15T03:00:03.764Z,11.65
2018-01-15T03:02:31.635Z,12.50
2018-01-15T03:04:59.498Z,11.40
2018-01-15T03:07:27.365Z,12.07
2018-01-15T03:09:55.232Z,12.70
2018-01-15T03:12:23.102Z,9.77
2018-01-15T03:14:50.967Z,12.98
2018-01-15T03:17:18.732Z,13.43
2018-01-15T03:19:46.599Z,11.30
2018-01-15T03:22:14.466Z,10.70
2018-01-15T03:24:42.334Z,10.35
2018-01-15T03:27:10.202Z,11.27
2018-01-15T03:29:38.068Z,10.40
2018-01-15T03:32:05.935Z,12.40
2018-01-15T03:34:33.803Z,12.13
2018-01-15T03:37:01.670Z,11.65
2018-01-15T03:39:29.537Z,12.98
2018-01-15T03:41:57.404Z,11.50
2018-01-15T03:44:25.275Z,13.02
2018-01-15T03:46:53.021Z,14.05
2018-01-15T03:49:20.749Z,14.27
2018-01-15T03:51:49.234Z,14.75
2018-01-15T03:54:17.049Z,12.60
2018-01-15T03:56:44.920Z,13.80
2018-01-15T03:59:12.785Z,13.60
2018-01-15T04:01:40.651Z,14.07
2018-01-15T04:04:08.517Z,13.45
2018-01-15T04:06:36.385Z,12.90
2018-01-15T04:09:04.355Z,11.88
2018-01-15T04:11:32.222Z,12.35
2018-01-15T04:14:00.088Z,11.25
2018-01-15T04:16:27.956Z,9.55
2018-01-15T04:18:55.824Z,10.80
2018-01-15T04:21:23.691Z,11.00
2018-01-15T04:23:51.558Z,11.10
2018-01-15T04:26:19.425Z,13.27
2018-01-15T04:28:47.291Z,13.30
2018-01-15T04:31:15.160Z,14.18
2018-01-15T04:33:43.026Z,14.63
2018-01-15T04:36:10.895Z,15.63
2018-01-15T04:38:38.762Z,13.60
2018-01-15T04:41:07.240Z,13.65
2018-01-15T04:43:35.219Z,13.45
2018-01-15T04:46:03.950Z,12.50
2018-01-15T04:48:32.588Z,12.80
2018-01-15T04:51:00.379Z,12.95
2018-01-15T04:53:28.219Z,13.50
2018-01-15T04:55:56.086Z,13.68
2018-01-15T04:58:23.953Z,13.60
2018-01-15T05:00:51.689Z,14.43
2018-01-15T05:03:19.401Z,12.95
2018-01-15T05:05:47.117Z,12.37
2018-01-15T05:08:14.830Z,14.20
2018-01-15T05:10:42.576Z,12.93
2018-01-15T05:13:10.440Z,12.48
2018-01-15T05:15:38.307Z,12.57
2018-01-15T05:18:06.176Z,12.90
2018-01-15T05:20:34.042Z,12.88
2018-01-15T05:23:01.807Z,12.00
2018-01-15T05:25:29.522Z,12.55
2018-01-15T05:27:57.997Z,12.15
2018-01-15T05:30:26.473Z,11.55
2018-01-15T05:32:54.951Z,12.30
2018-01-15T05:35:23.429Z,13.40
2018-01-15T05:37:51.262Z,12.77
2018-01-15T05:40:19.134Z,12.15
2018-01-15T05:42:46.998Z,12.65
2018-01-15T05:45:14.718Z,12.15
2018-01-15T05:47:42.530Z,12.32
2018-01-15T05:50:10.395Z,12.07
2018-01-15T05:52:38.120Z,12.90
2018-01-15T05:55:05.833Z,13.02
2018-01-15T05:57:33.539Z,12.32
2018-01-15T06:00:01.353Z,11.85
2018-01-15T06:02:29.121Z,13.73
2018-01-15T06:04:56.986Z,12.88
2018-01-15T06:07:24.851Z,12.20
2018-01-15T06:09:52.720Z,13.73
2018-01-15T06:12:20.586Z,12.50
2018-01-15T06:14:48.454Z,14.52
2018-01-15T06:17:16.320Z,13.20
2018-01-15T06:19:44.190Z,12.68
2018-01-15T06:22:12.669Z,12.52
2018-01-15T06:24:40.395Z,12.85
2018-01-15T06:27:08.202Z,12.98
2018-01-15T06:29:35.913Z,11.98
2018-01-15T06:32:03.638Z,13.23
2018-01-15T06:34:31.498Z,12.63
2018-01-15T06:36:59.362Z,12.13
2018-01-15T06:39:27.229Z,11.85
2018-01-15T06:41:54.949Z,12.20
2018-01-15T06:44:22.702Z,12.15
2018-01-15T06:46:51.343Z,13.40
2018-01-15T06:49:19.213Z,12.25
2018-01-15T06:51:46.926Z,12.57
2018-01-15T06:54:15.423Z,12.95
2018-01-15T06:56:43.141Z,12.18
2018-01-15T06:59:10.989Z,12.55
2018-01-15T07:01:38.855Z,12.45
2018-01-15T07:04:06.563Z,12.50
2018-01-15T07:06:35.065Z,11.07
2018-01-15T07:09:02.866Z,12.05
2018-01-15T07:11:30.578Z,12.55
2018-01-15T07:13:59.070Z,10.90
2018-01-15T07:16:26.775Z,13.82
2018-01-15T07:18:54.643Z,12.65
2018-01-15T07:21:22.510Z,12.60
2018-01-15T07:23:50.238Z,11.68
2018-01-15T07:26:17.952Z,13.98
2018-01-15T07:28:46.528Z,11.95
2018-01-15T07:31:14.389Z,12.30
2018-01-15T07:33:42.295Z,12.95
2018-01-15T07:36:10.786Z,12.65
2018-01-15T07:38:39.425Z,12.15
2018-01-15T07:41:07.334Z,12.10
2018-01-15T07:43:35.978Z,11.25
2018-01-15T07:46:03.703Z,13.60
2018-01-15T07:48:31.465Z,12.85
2018-01-15T07:50:59.274Z,14.02
2018-01-15T07:53:27.140Z,14.15
2018-01-15T07:55:54.868Z,14.43
2018-01-15T07:58:22.579Z,12.80
2018-01-15T08:00:50.291Z,13.40
2018-01-15T08:03:18.002Z,13.90
2018-01-15T08:05:45.718Z,13.57
2018-01-15T08:08:13.502Z,12.50
2018-01-15T08:10:41.208Z,13.10
2018-01-15T08:13:09.055Z,14.80
2018-01-15T08:15:36.922Z,13.27
2018-01-15T08:18:04.658Z,14.48
2018-01-15T08:20:32.452Z,16.33
2018-01-15T08:23:00.319Z,15.65
2018-01-15T08:25:28.187Z,15.68
2018-01-15T08:27:55.916Z,16.05
2018-01-15T08:30:23.679Z,14.38
2018-01-15T08:32:51.487Z,14.75
2018-01-15T08:35:19.451Z,15.00
2018-01-15T08:37:47.318Z,15.30
2018-01-15T08:40:15.049Z,17.98
2018-01-15T08:42:42.823Z,18.33
2018-01-15T08:45:10.716Z,17.70
2018-01-15T08:47:38.583Z,18.90
2018-01-15T08:50:06.312Z,18.15
2018-01-15T08:52:34.034Z,18.65
2018-01-15T08:55:01.879Z,18.92
2018-01-15T08:57:29.745Z,17.62
2018-01-15T08:59:57.612Z,19.65
2018-01-15T09:02:25.355Z,20.17
2018-01-15T09:04:53.079Z,19.85
2018-01-15T09:07:21.662Z,18.73
2018-01-15T09:09:50.149Z,20.15
2018-01-15T09:12:17.883Z,21.62
2018-01-15T09:14:45.737Z,20.52
2018-01-15T09:17:13.604Z,18.95
2018-01-15T09:19:41.325Z,19.15
2018-01-15T09:22:09.063Z,19.37
2018-01-15T09:24:36.785Z,19.23
2018-01-15T09:27:04.666Z,18.85
2018-01-15T09:29:32.393Z,20.33
2018-01-15T09:32:00.121Z,19.92
2018-01-15T09:34:27.853Z,21.08
2018-01-15T09:36:55.608Z,21.15
2018-01-15T09:39:23.334Z,21.35
2018-01-15T09:41:51.971Z,18.17
2018-01-15T09:44:19.701Z,18.83
2018-01-15T09:46:47.435Z,19.73
2018-01-15T09:49:15.934Z,20.40
2018-01-15T09:51:43.671Z,20.75
2018-01-15T09:54:11.410Z,18.92
2018-01-15T09:56:39.277Z,21.37
2018-01-15T09:59:07.143Z,19.15
2018-01-15T10:01:35.010Z,17.95
2018-01-15T10:04:02.743Z,18.55
2018-01-15T10:06:30.539Z,20.60
2018-01-15T10:08:58.407Z,19.45
2018-01-15T10:11:26.275Z,18.00
2018-01-15T10:13:53.998Z,18.37
2018-01-15T10:16:21.730Z,20.08
2018-01-15T10:18:49.449Z,18.98
2018-01-15T10:21:17.196Z,19.92
2018-01-15T10:23:45.000Z,18.92
2018-01-15T10:26:12.710Z,19.45
2018-01-15T10:28:40.526Z,19.95
2018-01-15T10:31:08.393Z,19.37
2018-01-15T10:33:36.261Z,18.75
2018-01-15T10:36:04.042Z,18.80
2018-01-15T10:38:31.753Z,17.48
2018-01-15T10:40:59.555Z,21.12
2018-01-15T10:43:27.423Z,18.65
2018-01-15T10:45:55.291Z,18.17
2018-01-15T10:48:23.158Z,18.55
2018-01-15T10:50:51.026Z,19.05
2018-01-15T10:53:18.893Z,19.27
2018-01-15T10:55:46.622Z,18.52
2018-01-15T10:58:14.333Z,19.50
2018-01-15T11:00:57.752Z,15.50
2018-01-15T11:03:25.619Z,20.02
2018-01-15T11:05:53.423Z,18.65
2018-01-15T11:08:21.906Z,17.33
2018-01-15T11:10:50.555Z,18.27
2018-01-15T11:13:18.420Z,18.65
2018-01-15T11:15:46.287Z,17.80
2018-01-15T11:18:14.014Z,18.77
2018-01-15T11:20:41.817Z,20.17
2018-01-15T11:23:09.683Z,18.87
2018-01-15T11:25:37.553Z,19.77
2018-01-15T11:28:05.421Z,20.17
2018-01-15T11:30:33.149Z,17.90
2018-01-15T11:33:00.870Z,19.17
2018-01-15T11:35:28.594Z,18.23
2018-01-15T11:37:56.319Z,20.33
2018-01-15T11:40:24.958Z,17.10
2018-01-15T11:42:52.682Z,16.70
2018-01-15T11:45:20.632Z,18.00
2018-01-15T11:47:49.116Z,18.05
2018-01-15T11:50:17.610Z,17.20
2018-01-15T11:52:45.354Z,16.98
2018-01-15T11:55:13.852Z,18.12
2018-01-15T11:57:42.347Z,17.98
2018-01-15T12:00:10.150Z,17.35
2018-01-15T12:02:37.878Z,17.95
2018-01-15T12:05:05.606Z,18.48
2018-01-15T12:07:33.445Z,17.45
2018-01-15T12:10:01.313Z,18.50
2018-01-15T12:12:29.034Z,17.17
2018-01-15T12:14:56.845Z,17.50
2018-01-15T12:17:24.709Z,16.83
2018-01-15T12:19:52.441Z,16.17
2018-01-15T12:22:20.246Z,18.37
2018-01-15T12:24:48.153Z,16.33
2018-01-15T12:27:16.794Z,17.08
2018-01-15T12:29:44.661Z,15.75
2018-01-15T12:32:12.529Z,17.50
2018-01-15T12:34:40.254Z,17.05
2018-01-15T12:37:07.978Z,16.73
2018-01-15T12:39:35.706Z,16.25
2018-01-15T12:42:03.458Z,16.85
2018-01-15T12:44:31.180Z,18.35
2018-01-15T12:46:59.015Z,15.32
2018-01-15T12:49:26.736Z,17.15
2018-01-15T12:51:54.548Z,15.63
2018-01-15T12:54:22.279Z,15.40
2018-01-15T12:56:50.014Z,16.30
2018-01-15T12:59:18.504Z,15.93
2018-01-15T13:01:46.994Z,16.02
2018-01-15T13:04:14.727Z,14.05
2018-01-15T13:06:54.252Z,15.95
2018-01-15T13:09:21.988Z,16.48
2018-01-15T13:11:49.713Z,16.08
2018-01-15T13:14:18.357Z,14.82
2018-01-15T13:16:46.082Z,14.60
2018-01-15T13:19:13.790Z,14.50
2018-01-15T13:21:41.540Z,15.20
2018-01-15T13:24:09.265Z,14.68
2018-01-15T13:26:37.739Z,15.00
2018-01-15T13:29:06.378Z,15.45
2018-01-15T13:31:34.246Z,13.57
2018-01-15T13:34:02.116Z,13.23
2018-01-15T13:36:29.826Z,13.18
2018-01-15T13:38:58.309Z,14.27
2018-01-15T13:41:26.018Z,14.50
2018-01-15T13:43:53.726Z,15.98
2018-01-15T13:46:22.201Z,13.82
2018-01-15T13:48:49.921Z,14.18
2018-01-15T13:51:17.647Z,12.82
2018-01-15T13:53:46.281Z,14.98
2018-01-15T13:56:14.147Z,13.95
2018-01-15T13:58:41.869Z,13.85
2018-01-15T14:01:09.586Z,13.57
2018-01-15T14:03:37.444Z,12.90
2018-01-15T14:06:05.172Z,13.30
2018-01-15T14:08:32.908Z,12.55
2018-01-15T14:11:01.556Z,11.35
2018-01-15T14:13:29.273Z,11.80
2018-01-15T14:15:57.906Z,11.68
2018-01-15T14:18:25.773Z,11.35
2018-01-15T14:20:53.488Z,11.90
2018-01-15T14:23:21.978Z,10.43
2018-01-15T14:25:49.785Z,11.60
2018-01-15T14:28:17.651Z,12.73
2018-01-15T14:30:45.378Z,11.80
2018-01-15T14:33:13.107Z,11.40
2018-01-15T14:35:40.946Z,11.00
2018-01-15T14:38:08.813Z,13.40
2018-01-15T14:40:36.681Z,12.32
2018-01-15T14:43:04.410Z,12.18
2018-01-15T14:45:32.122Z,11.50
2018-01-15T14:47:59.976Z,12.57
2018-01-15T14:50:27.843Z,10.50
2018-01-15T14:52:55.710Z,11.85
2018-01-15T14:55:23.577Z,12.10
2018-01-15T14:57:51.447Z,11.38
2018-01-15T15:00:19.312Z,10.80
2018-01-15T15:02:47.032Z,10.63
2018-01-15T15:05:14.841Z,12.13
2018-01-15T15:07:42.555Z,11.30
2018-01-15T15:10:11.030Z,11.10
2018-01-15T15:12:39.539Z,11.05
2018-01-15T15:15:07.396Z,10.57
2018-01-15T15:17:36.023Z,10.98
2018-01-15T15:20:03.889Z,10.25
2018-01-15T15:22:31.756Z,12.30
2018-01-15T15:24:59.623Z,12.43
2018-01-15T15:27:27.491Z,10.95
2018-01-15T15:29:55.218Z,11.43
2018-01-15T15:32:23.022Z,9.88
2018-01-15T15:34:50.742Z,10.93
2018-01-15T15:37:18.551Z,10.95
2018-01-15T15:39:46.419Z,11.68
2018-01-15T15:42:14.287Z,10.45
2018-01-15T15:44:42.155Z,11.23
2018-01-15T15:47:10.020Z,11.80
2018-01-15T15:49:37.827Z,10.55
2018-01-15T15:52:06.320Z,12.88
2018-01-15T15:54:34.951Z,12.48
2018-01-15T15:57:02.822Z,14.00
2018-01-15T15:59:30.686Z,13.23
2018-01-15T16:01:58.554Z,12.55
2018-01-15T16:04:26.421Z,14.00
2018-01-15T16:06:54.288Z,15.10
2018-01-15T16:09:22.156Z,14.30
2018-01-15T16:11:49.881Z,14.25
2018-01-15T16:14:17.686Z,15.45
2018-01-15T16:16:45.455Z,12.73
2018-01-15T16:19:13.177Z,13.07
2018-01-15T16:21:40.952Z,13.68
2018-01-15T16:24:08.673Z,12.15
2018-01-15T16:26:36.510Z,12.30
2018-01-15T16:29:04.381Z,12.70
2018-01-15T16:31:32.245Z,12.13
2018-01-15T16:34:00.112Z,12.85
2018-01-15T16:36:27.980Z,12.82
2018-01-15T16:38:55.846Z,12.18
2018-01-15T16:41:23.650Z,12.77
2018-01-15T16:43:52.298Z,11.85
2018-01-15T16:46:20.165Z,12.18
2018-01-15T16:48:48.033Z,12.10
2018-01-15T16:51:28.495Z,11.82
2018-01-15T16:53:56.363Z,12.20
2018-01-15T16:56:24.229Z,12.98
2018-01-15T16:58:52.096Z,13.25
2018-01-15T17:01:19.823Z,11.50
2018-01-15T17:03:47.540Z,12.37
2018-01-15T17:06:15.267Z,12.88
2018-01-15T17:08:43.059Z,11.98
2018-01-15T17:11:10.848Z,12.10
2018-01-15T17:13:38.703Z,12.75
2018-01-15T17:16:06.553Z,11.48
2018-01-15T17:18:34.421Z,11.85
2018-01-15T17:21:02.287Z,12.30
2018-01-15T17:23:30.155Z,13.55
2018-01-15T17:26:00.559Z,12.05
2018-01-15T17:28:28.451Z,11.57
2018-01-15T17:30:56.256Z,12.02
2018-01-15T17:33:31.637Z,10.93
2018-01-15T17:35:59.629Z,12.43
2018-01-15T17:38:27.496Z,11.70
2018-01-15T17:40:55.364Z,13.52
2018-01-15T17:43:23.231Z,11.88
2018-01-15T17:45:51.099Z,13.00
2018-01-15T17:48:18.864Z,11.50
2018-01-15T17:50:46.733Z,11.10
2018-01-15T17:53:14.600Z,11.25
2018-01-15T17:55:42.466Z,13.13
2018-01-15T17:58:10.334Z,11.30
2018-01-15T18:00:38.202Z,11.52
2018-01-15T18:03:06.068Z,11.63
2018-01-15T18:05:33.936Z,11.05
2018-01-15T18:08:01.802Z,11.23
2018-01-15T18:10:29.676Z,11.68
2018-01-15T18:12:57.543Z,10.32
2018-01-15T18:15:25.404Z,12.05
2018-01-15T18:17:53.287Z,11.63
2018-01-15T18:20:21.138Z,11.20
2018-01-15T18:22:49.006Z,9.93
2018-01-15T18:25:16.874Z,11.20
2018-01-15T18:27:44.747Z,12.05
2018-01-15T18:30:12.609Z,11.80
2018-01-15T18:32:40.475Z,10.80
2018-01-15T18:35:08.344Z,12.00
2018-01-15T18:37:36.211Z,13.32
2018-01-15T18:40:04.083Z,9.85
2018-01-15T18:42:31.946Z,11.95
2018-01-15T18:44:59.812Z,10.40
2018-01-15T18:47:27.679Z,11.43
2018-01-15T18:49:55.547Z,11.25
2018-01-15T18:52:23.414Z,12.05
2018-01-15T18:54:51.323Z,10.57
2018-01-15T18:57:19.968Z,10.85
2018-01-15T18:59:47.835Z,10.60
2018-01-15T19:02:15.702Z,11.15
2018-01-15T19:04:43.570Z,10.00
2018-01-15T19:07:11.437Z,9.70
2018-01-15T19:09:39.305Z,8.65
2018-01-15T19:12:07.171Z,7.37
2018-01-15T19:14:35.039Z,7.10
2018-01-15T19:17:02.907Z,6.95
2018-01-15T19:19:30.876Z,5.65
2018-01-15T19:21:58.743Z,6.65
2018-01-15T19:24:26.611Z,6.18
2018-01-15T19:26:54.478Z,6.00
2018-01-15T19:29:22.345Z,6.55
2018-01-15T19:31:50.212Z,6.55
2018-01-15T19:34:18.080Z,6.22
2018-01-15T19:36:50.863Z,6.15
2018-01-15T19:39:19.244Z,5.45
2018-01-15T19:41:47.109Z,6.68
2018-01-15T19:44:20.537Z,5.43
2018-01-15T19:46:54.656Z,5.97
2018-01-15T19:49:28.764Z,4.30
2018-01-15T19:52:02.847Z,4.68
2018-01-15T19:54:36.347Z,4.25
2018-01-15T19:57:09.803Z,4.85
2018-01-15T19:59:43.960Z,3.90
2018-01-15T20:02:17.664Z,4.65
2018-01-15T20:05:04.169Z,4.15
2018-01-15T20:07:37.566Z,4.72
2018-01-15T20:10:22.231Z,4.60
2018-01-15T20:12:50.094Z,4.25
2018-01-15T20:15:17.962Z,4.60
2018-01-15T20:17:45.830Z,4.75
2018-01-15T20:20:13.696Z,6.10
2018-01-15T20:22:41.564Z,4.50
2018-01-15T20:25:09.431Z,4.70
2018-01-15T20:27:37.299Z,4.32
2018-01-15T20:30:05.165Z,4.30
2018-01-15T20:32:33.038Z,4.80
2018-01-15T20:35:00.900Z,4.20
2018-01-15T20:37:28.767Z,4.90
2018-01-15T20:39:56.639Z,4.75
2018-01-15T20:42:24.502Z,4.37
2018-01-15T20:44:52.369Z,4.15
2018-01-15T20:47:20.237Z,4.60
2018-01-15T20:49:48.103Z,5.37
2018-01-15T20:52:15.971Z,4.37
2018-01-15T20:54:43.838Z,4.70
2018-01-15T20:57:11.705Z,5.20
2018-01-15T20:59:39.574Z,4.85
2018-01-15T21:02:07.653Z,5.47
2018-01-15T21:04:35.512Z,4.53
2018-01-15T21:07:03.380Z,4.55
2018-01-15T21:09:31.252Z,4.20
2018-01-15T21:11:59.115Z,4.30
2018-01-15T21:14:27.084Z,3.87
2018-01-15T21:16:54.951Z,3.33
2018-01-15T21:19:22.819Z,3.55
2018-01-15T21:21:50.686Z,3.22
2018-01-15T21:24:18.558Z,3.30
2018-01-15T21:26:46.932Z,2.40
2018-01-15T21:29:14.800Z,3.20
2018-01-15T21:31:42.669Z,3.30
2018-01-15T21:34:10.535Z,3.20
2018-01-15T21:36:38.402Z,3.20
2018-01-15T21:39:06.269Z,3.37
2018-01-15T21:41:34.137Z,3.30
2018-01-15T21:44:02.004Z,3.22
2018-01-15T21:46:29.872Z,4.07
2018-01-15T21:48:57.787Z,4.93
2018-01-15T21:51:26.426Z,3.83
2018-01-15T21:53:54.294Z,4.50
2018-01-15T21:56:22.161Z,4.60
2018-01-15T21:58:50.027Z,4.25
2018-01-15T22:01:17.895Z,4.65
2018-01-15T22:03:45.762Z,3.95
2018-01-15T22:06:13.629Z,4.53
2018-01-15T22:08:41.496Z,4.15
2018-01-15T22:11:09.368Z,4.65
2018-01-15T22:13:37.231Z,3.45
2018-01-15T22:16:05.099Z,4.82
2018-01-15T22:18:32.966Z,3.37
2018-01-15T22:21:00.833Z,3.40
2018-01-15T22:23:28.700Z,4.03
2018-01-15T22:25:56.568Z,4.10
2018-01-15T22:28:24.436Z,4.00
2018-01-15T22:30:52.302Z,3.72
2018-01-15T22:33:20.170Z,3.45
2018-01-15T22:35:48.040Z,3.33
2018-01-15T22:38:15.904Z,3.35
2018-01-15T22:40:43.771Z,2.45
2018-01-15T22:43:11.640Z,2.00
2018-01-15T22:45:39.509Z,2.00
2018-01-15T22:48:07.374Z,1.70
2018-01-15T22:50:35.242Z,1.90
2018-01-15T22:53:03.108Z,1.52
2018-01-15T22:55:30.977Z,1.95
2018-01-15T23:00:32.651Z,1.70
2018-01-15T23:03:00.517Z,1.70
2018-01-15T23:05:29.203Z,1.50
2018-01-15T23:07:57.071Z,1.33
2018-01-15T23:10:24.942Z,1.33
2018-01-15T23:12:52.702Z,1.52
2018-01-15T23:15:20.504Z,1.20
2018-01-15T23:17:49.155Z,1.45
2018-01-15T23:20:17.021Z,1.25
2018-01-15T23:22:44.889Z,1.05
2018-01-15T23:25:12.654Z,0.80
2018-01-15T23:27:40.521Z,0.85
2018-01-15T23:30:08.389Z,1.00
2018-01-15T23:32:36.256Z,0.90
2018-01-15T23:35:04.123Z,0.82
2018-01-15T23:37:31.990Z,0.88
2018-01-15T23:39:59.857Z,0.70
2018-01-15T23:42:27.726Z,0.70
2018-01-15T23:44:55.592Z,0.90
2018-01-15T23:47:23.461Z,0.88
2018-01-15T23:49:51.327Z,0.80
2018-01-15T23:52:19.194Z,0.80
2018-01-15T23:54:47.061Z,0.70
2018-01-15T23:57:14.929Z,1.00
2018-01-15T23:59:42.798Z,0.80
